Weather at General Bartolome Salom International Airport

Public forecast

Using degrees Celsius for public forecast. Weather courtesy of forecast.io.

Closest aviation weather report (METAR) to General Bartolome Salom International Airport

Closest report is Arturo Michelena International Airport, 21.6 nm (40.0 km) SSE.

2022/12/08 12:03 (retrieved 56 minutes ago)

SVVA 081203Z AUTO 04002KT NCD 21/18 Q1014

Closest aviation forecast (TAF) to General Bartolome Salom International Airport

Closest forecast is Arturo Michelena International Airport, 21.6 nm (40.0 km) SSE.

2022/12/08 12:33 (retrieved 26 minutes ago)

TAF TAF SVVA 081100Z 0812/0912 18003KT 9999 FEW016 TX30/0819Z TN23/0909Z TEMPO 0814/0818 36004KT SCT016 TEMPO 0820/0900 23002KT 9999 BKN016